sensor_id;sensor_type;location;lat;lon;timestamp;P1;durP1;ratioP1;P2;durP2;ratioP2
4521;SDS011;2273;48.464;11.926;2022-12-29T00:01:21;17.00;;;10.13;;
4521;SDS011;2273;48.464;11.926;2022-12-29T00:03:46;20.53;;;10.27;;
4521;SDS011;2273;48.464;11.926;2022-12-29T00:06:12;18.07;;;10.10;;
4521;SDS011;2273;48.464;11.926;2022-12-29T00:08:37;15.13;;;9.63;;
4521;SDS011;2273;48.464;11.926;2022-12-29T00:11:09;16.85;;;9.18;;
4521;SDS011;2273;48.464;11.926;2022-12-29T00:13:38;17.30;;;8.07;;
4521;SDS011;2273;48.464;11.926;2022-12-29T00:16:23;12.68;;;7.70;;
4521;SDS011;2273;48.464;11.926;2022-12-29T00:18:49;12.80;;;7.70;;
4521;SDS011;2273;48.464;11.926;2022-12-29T00:21:15;9.23;;;6.30;;
4521;SDS011;2273;48.464;11.926;2022-12-29T00:24:01;10.77;;;6.88;;
4521;SDS011;2273;48.464;11.926;2022-12-29T00:26:46;11.55;;;7.80;;
4521;SDS011;2273;48.464;11.926;2022-12-29T00:29:39;11.30;;;6.82;;
4521;SDS011;2273;48.464;11.926;2022-12-29T00:32:23;10.95;;;6.78;;
4521;SDS011;2273;48.464;11.926;2022-12-29T00:35:08;12.07;;;7.55;;
4521;SDS011;2273;48.464;11.926;2022-12-29T00:37:35;10.45;;;7.00;;
4521;SDS011;2273;48.464;11.926;2022-12-29T00:40:21;11.75;;;6.45;;
4521;SDS011;2273;48.464;11.926;2022-12-29T00:43:05;10.77;;;6.20;;
4521;SDS011;2273;48.464;11.926;2022-12-29T00:45:49;12.13;;;6.90;;
4521;SDS011;2273;48.464;11.926;2022-12-29T00:48:14;10.90;;;7.20;;
4521;SDS011;2273;48.464;11.926;2022-12-29T00:50:40;11.30;;;7.37;;
4521;SDS011;2273;48.464;11.926;2022-12-29T00:53:05;23.70;;;9.30;;
4521;SDS011;2273;48.464;11.926;2022-12-29T00:55:30;14.80;;;8.37;;
4521;SDS011;2273;48.464;11.926;2022-12-29T00:57:56;12.10;;;7.83;;
4521;SDS011;2273;48.464;11.926;2022-12-29T01:00:21;14.40;;;7.80;;
4521;SDS011;2273;48.464;11.926;2022-12-29T01:02:47;13.27;;;7.00;;
4521;SDS011;2273;48.464;11.926;2022-12-29T01:05:12;14.33;;;7.70;;
4521;SDS011;2273;48.464;11.926;2022-12-29T01:07:38;9.87;;;6.60;;
4521;SDS011;2273;48.464;11.926;2022-12-29T01:10:03;11.27;;;7.10;;
4521;SDS011;2273;48.464;11.926;2022-12-29T01:12:35;9.90;;;6.60;;
4521;SDS011;2273;48.464;11.926;2022-12-29T01:15:09;12.07;;;6.43;;
4521;SDS011;2273;48.464;11.926;2022-12-29T01:17:35;10.82;;;5.93;;
4521;SDS011;2273;48.464;11.926;2022-12-29T01:20:01;13.77;;;7.70;;
4521;SDS011;2273;48.464;11.926;2022-12-29T01:22:27;11.93;;;7.00;;
4521;SDS011;2273;48.464;11.926;2022-12-29T01:24:54;12.15;;;7.43;;
4521;SDS011;2273;48.464;11.926;2022-12-29T01:27:20;10.97;;;7.20;;
4521;SDS011;2273;48.464;11.926;2022-12-29T01:29:45;12.97;;;7.30;;
4521;SDS011;2273;48.464;11.926;2022-12-29T01:32:10;9.43;;;6.60;;
4521;SDS011;2273;48.464;11.926;2022-12-29T01:34:37;10.30;;;6.10;;
4521;SDS011;2273;48.464;11.926;2022-12-29T01:37:03;8.47;;;5.60;;
4521;SDS011;2273;48.464;11.926;2022-12-29T01:39:28;9.07;;;5.40;;
4521;SDS011;2273;48.464;11.926;2022-12-29T01:41:53;7.90;;;5.77;;
4521;SDS011;2273;48.464;11.926;2022-12-29T01:47:38;9.10;;;5.55;;
4521;SDS011;2273;48.464;11.926;2022-12-29T01:50:09;8.13;;;5.35;;
4521;SDS011;2273;48.464;11.926;2022-12-29T01:52:38;7.55;;;4.97;;
4521;SDS011;2273;48.464;11.926;2022-12-29T01:55:07;8.18;;;5.22;;
4521;SDS011;2273;48.464;11.926;2022-12-29T01:57:34;6.88;;;4.80;;
4521;SDS011;2273;48.464;11.926;2022-12-29T02:00:04;11.80;;;6.20;;
4521;SDS011;2273;48.464;11.926;2022-12-29T02:02:43;10.02;;;5.97;;
4521;SDS011;2273;48.464;11.926;2022-12-29T02:05:14;9.70;;;6.43;;
4521;SDS011;2273;48.464;11.926;2022-12-29T02:07:44;8.20;;;5.72;;
4521;SDS011;2273;48.464;11.926;2022-12-29T02:10:10;10.48;;;6.25;;
4521;SDS011;2273;48.464;11.926;2022-12-29T02:12:35;8.03;;;5.83;;
4521;SDS011;2273;48.464;11.926;2022-12-29T02:15:01;6.43;;;4.50;;
4521;SDS011;2273;48.464;11.926;2022-12-29T02:28:11;4.47;;;3.63;;
4521;SDS011;2273;48.464;11.926;2022-12-29T02:33:20;4.40;;;2.92;;
4521;SDS011;2273;48.464;11.926;2022-12-29T02:44:16;4.10;;;3.40;;
4521;SDS011;2273;48.464;11.926;2022-12-29T02:46:47;3.85;;;2.80;;
4521;SDS011;2273;48.464;11.926;2022-12-29T02:49:25;5.50;;;3.08;;
4521;SDS011;2273;48.464;11.926;2022-12-29T02:52:11;4.00;;;2.95;;
4521;SDS011;2273;48.464;11.926;2022-12-29T02:54:43;3.75;;;3.00;;
4521;SDS011;2273;48.464;11.926;2022-12-29T02:57:12;3.90;;;2.58;;
4521;SDS011;2273;48.464;11.926;2022-12-29T02:59:40;3.47;;;2.58;;
4521;SDS011;2273;48.464;11.926;2022-12-29T03:21:37;2.95;;;2.55;;
4521;SDS011;2273;48.464;11.926;2022-12-29T03:24:26;3.58;;;2.58;;
4521;SDS011;2273;48.464;11.926;2022-12-29T03:26:56;3.35;;;2.78;;
4521;SDS011;2273;48.464;11.926;2022-12-29T03:29:28;4.88;;;2.40;;
4521;SDS011;2273;48.464;11.926;2022-12-29T03:31:55;3.20;;;2.50;;
4521;SDS011;2273;48.464;11.926;2022-12-29T03:34:20;5.37;;;2.67;;
4521;SDS011;2273;48.464;11.926;2022-12-29T03:36:54;2.80;;;2.00;;
4521;SDS011;2273;48.464;11.926;2022-12-29T03:39:24;3.55;;;2.40;;
4521;SDS011;2273;48.464;11.926;2022-12-29T03:41:51;3.22;;;2.40;;
4521;SDS011;2273;48.464;11.926;2022-12-29T03:44:21;3.70;;;2.47;;
4521;SDS011;2273;48.464;11.926;2022-12-29T03:46:46;3.50;;;2.20;;
4521;SDS011;2273;48.464;11.926;2022-12-29T03:49:12;3.10;;;2.23;;
4521;SDS011;2273;48.464;11.926;2022-12-29T03:51:38;3.15;;;2.00;;
4521;SDS011;2273;48.464;11.926;2022-12-29T03:54:04;3.17;;;2.25;;
4521;SDS011;2273;48.464;11.926;2022-12-29T03:56:30;2.40;;;1.93;;
4521;SDS011;2273;48.464;11.926;2022-12-29T03:58:57;2.92;;;2.25;;
4521;SDS011;2273;48.464;11.926;2022-12-29T04:01:31;2.30;;;2.10;;
4521;SDS011;2273;48.464;11.926;2022-12-29T04:03:56;2.93;;;2.10;;
4521;SDS011;2273;48.464;11.926;2022-12-29T04:06:22;3.77;;;2.10;;
4521;SDS011;2273;48.464;11.926;2022-12-29T04:08:54;2.45;;;2.25;;
4521;SDS011;2273;48.464;11.926;2022-12-29T04:11:20;2.55;;;2.13;;
4521;SDS011;2273;48.464;11.926;2022-12-29T04:13:48;3.05;;;2.10;;
4521;SDS011;2273;48.464;11.926;2022-12-29T04:16:17;3.03;;;2.08;;
4521;SDS011;2273;48.464;11.926;2022-12-29T04:18:43;3.83;;;2.33;;
4521;SDS011;2273;48.464;11.926;2022-12-29T04:21:09;3.57;;;1.93;;
4521;SDS011;2273;48.464;11.926;2022-12-29T04:23:37;2.55;;;2.05;;
4521;SDS011;2273;48.464;11.926;2022-12-29T04:26:06;2.73;;;2.10;;
4521;SDS011;2273;48.464;11.926;2022-12-29T04:28:43;3.95;;;2.22;;
4521;SDS011;2273;48.464;11.926;2022-12-29T04:31:21;4.45;;;2.20;;
4521;SDS011;2273;48.464;11.926;2022-12-29T04:33:48;2.35;;;2.00;;
4521;SDS011;2273;48.464;11.926;2022-12-29T04:36:14;4.20;;;2.40;;
4521;SDS011;2273;48.464;11.926;2022-12-29T04:38:40;2.30;;;2.00;;
4521;SDS011;2273;48.464;11.926;2022-12-29T04:41:05;3.60;;;2.23;;
4521;SDS011;2273;48.464;11.926;2022-12-29T04:43:32;2.42;;;2.22;;
4521;SDS011;2273;48.464;11.926;2022-12-29T04:46:12;3.43;;;2.27;;
4521;SDS011;2273;48.464;11.926;2022-12-29T04:49:00;2.30;;;2.03;;
4521;SDS011;2273;48.464;11.926;2022-12-29T04:52:05;2.97;;;2.50;;
4521;SDS011;2273;48.464;11.926;2022-12-29T04:54:31;3.07;;;2.50;;
4521;SDS011;2273;48.464;11.926;2022-12-29T04:57:06;2.80;;;2.20;;
4521;SDS011;2273;48.464;11.926;2022-12-29T04:59:32;3.25;;;2.40;;
4521;SDS011;2273;48.464;11.926;2022-12-29T05:01:58;2.63;;;2.00;;
4521;SDS011;2273;48.464;11.926;2022-12-29T05:04:24;3.90;;;2.47;;
4521;SDS011;2273;48.464;11.926;2022-12-29T05:06:50;2.40;;;2.03;;
4521;SDS011;2273;48.464;11.926;2022-12-29T05:09:16;4.87;;;2.70;;
4521;SDS011;2273;48.464;11.926;2022-12-29T05:11:43;3.05;;;2.60;;
4521;SDS011;2273;48.464;11.926;2022-12-29T05:14:09;5.37;;;3.47;;
4521;SDS011;2273;48.464;11.926;2022-12-29T05:16:36;3.97;;;3.10;;
4521;SDS011;2273;48.464;11.926;2022-12-29T05:19:01;4.30;;;2.73;;
4521;SDS011;2273;48.464;11.926;2022-12-29T05:21:27;3.20;;;2.77;;
4521;SDS011;2273;48.464;11.926;2022-12-29T05:23:53;6.00;;;2.93;;
4521;SDS011;2273;48.464;11.926;2022-12-29T05:26:19;2.95;;;2.30;;
4521;SDS011;2273;48.464;11.926;2022-12-29T05:28:53;2.70;;;2.25;;
4521;SDS011;2273;48.464;11.926;2022-12-29T05:31:19;3.77;;;2.63;;
4521;SDS011;2273;48.464;11.926;2022-12-29T05:33:44;7.30;;;2.20;;
4521;SDS011;2273;48.464;11.926;2022-12-29T05:36:10;3.80;;;2.43;;
4521;SDS011;2273;48.464;11.926;2022-12-29T05:38:40;3.28;;;2.40;;
4521;SDS011;2273;48.464;11.926;2022-12-29T05:41:06;4.77;;;2.83;;
4521;SDS011;2273;48.464;11.926;2022-12-29T05:44:00;3.70;;;2.50;;
4521;SDS011;2273;48.464;11.926;2022-12-29T05:46:52;3.97;;;2.70;;
4521;SDS011;2273;48.464;11.926;2022-12-29T05:49:29;3.20;;;2.30;;
4521;SDS011;2273;48.464;11.926;2022-12-29T05:52:04;2.77;;;2.30;;
4521;SDS011;2273;48.464;11.926;2022-12-29T05:54:31;3.40;;;2.50;;
4521;SDS011;2273;48.464;11.926;2022-12-29T05:56:57;2.10;;;1.90;;
4521;SDS011;2273;48.464;11.926;2022-12-29T05:59:22;2.53;;;2.20;;
4521;SDS011;2273;48.464;11.926;2022-12-29T06:01:49;2.97;;;2.30;;
4521;SDS011;2273;48.464;11.926;2022-12-29T06:04:15;2.80;;;2.13;;
4521;SDS011;2273;48.464;11.926;2022-12-29T06:06:40;3.00;;;2.10;;
4521;SDS011;2273;48.464;11.926;2022-12-29T06:09:12;3.30;;;2.73;;
4521;SDS011;2273;48.464;11.926;2022-12-29T06:11:37;3.00;;;2.23;;
4521;SDS011;2273;48.464;11.926;2022-12-29T06:14:03;3.53;;;2.50;;
4521;SDS011;2273;48.464;11.926;2022-12-29T06:16:28;2.43;;;2.17;;
4521;SDS011;2273;48.464;11.926;2022-12-29T06:18:57;3.10;;;2.30;;
4521;SDS011;2273;48.464;11.926;2022-12-29T06:21:22;2.20;;;2.00;;
4521;SDS011;2273;48.464;11.926;2022-12-29T06:23:48;2.60;;;2.40;;
4521;SDS011;2273;48.464;11.926;2022-12-29T06:26:13;4.17;;;2.80;;
4521;SDS011;2273;48.464;11.926;2022-12-29T06:28:39;18.23;;;10.63;;
4521;SDS011;2273;48.464;11.926;2022-12-29T06:31:04;9.53;;;5.70;;
4521;SDS011;2273;48.464;11.926;2022-12-29T06:33:30;7.20;;;4.60;;
4521;SDS011;2273;48.464;11.926;2022-12-29T06:35:56;4.67;;;3.60;;
4521;SDS011;2273;48.464;11.926;2022-12-29T06:38:21;3.40;;;2.80;;
4521;SDS011;2273;48.464;11.926;2022-12-29T06:40:47;4.67;;;3.00;;
4521;SDS011;2273;48.464;11.926;2022-12-29T06:43:18;4.07;;;2.80;;
4521;SDS011;2273;48.464;11.926;2022-12-29T06:45:59;2.77;;;2.40;;
4521;SDS011;2273;48.464;11.926;2022-12-29T06:48:25;3.43;;;2.30;;
4521;SDS011;2273;48.464;11.926;2022-12-29T06:50:50;5.80;;;3.00;;
4521;SDS011;2273;48.464;11.926;2022-12-29T06:53:16;3.27;;;2.30;;
4521;SDS011;2273;48.464;11.926;2022-12-29T06:55:41;2.67;;;2.17;;
4521;SDS011;2273;48.464;11.926;2022-12-29T06:58:07;4.53;;;3.20;;
4521;SDS011;2273;48.464;11.926;2022-12-29T07:00:32;6.27;;;2.83;;
4521;SDS011;2273;48.464;11.926;2022-12-29T07:02:58;17.03;;;9.50;;
4521;SDS011;2273;48.464;11.926;2022-12-29T07:05:23;4.10;;;3.07;;
4521;SDS011;2273;48.464;11.926;2022-12-29T07:07:51;4.63;;;2.10;;
4521;SDS011;2273;48.464;11.926;2022-12-29T07:10:17;11.80;;;6.40;;
4521;SDS011;2273;48.464;11.926;2022-12-29T07:12:42;2.73;;;2.30;;
4521;SDS011;2273;48.464;11.926;2022-12-29T07:15:08;5.37;;;3.30;;
4521;SDS011;2273;48.464;11.926;2022-12-29T07:17:33;6.17;;;4.07;;
4521;SDS011;2273;48.464;11.926;2022-12-29T07:19:59;4.90;;;3.30;;
4521;SDS011;2273;48.464;11.926;2022-12-29T07:22:24;3.50;;;2.33;;
4521;SDS011;2273;48.464;11.926;2022-12-29T07:24:50;4.50;;;2.40;;
4521;SDS011;2273;48.464;11.926;2022-12-29T07:27:15;2.70;;;2.20;;
4521;SDS011;2273;48.464;11.926;2022-12-29T07:29:40;3.23;;;2.10;;
4521;SDS011;2273;48.464;11.926;2022-12-29T07:32:06;4.60;;;2.50;;
4521;SDS011;2273;48.464;11.926;2022-12-29T07:34:31;3.10;;;2.67;;
4521;SDS011;2273;48.464;11.926;2022-12-29T07:36:57;4.23;;;2.80;;
4521;SDS011;2273;48.464;11.926;2022-12-29T07:39:22;2.47;;;2.10;;
4521;SDS011;2273;48.464;11.926;2022-12-29T07:41:48;3.00;;;2.30;;
4521;SDS011;2273;48.464;11.926;2022-12-29T07:44:17;2.73;;;2.13;;
4521;SDS011;2273;48.464;11.926;2022-12-29T07:46:59;3.60;;;2.10;;
4521;SDS011;2273;48.464;11.926;2022-12-29T07:49:24;2.93;;;2.30;;
4521;SDS011;2273;48.464;11.926;2022-12-29T07:51:50;4.03;;;2.90;;
4521;SDS011;2273;48.464;11.926;2022-12-29T07:54:15;5.73;;;3.97;;
4521;SDS011;2273;48.464;11.926;2022-12-29T07:56:43;3.90;;;2.80;;
4521;SDS011;2273;48.464;11.926;2022-12-29T07:59:09;3.03;;;2.27;;
4521;SDS011;2273;48.464;11.926;2022-12-29T08:01:34;2.13;;;1.80;;
4521;SDS011;2273;48.464;11.926;2022-12-29T08:04:00;2.63;;;2.10;;
4521;SDS011;2273;48.464;11.926;2022-12-29T08:06:25;4.30;;;3.20;;
4521;SDS011;2273;48.464;11.926;2022-12-29T08:08:51;3.50;;;2.60;;
4521;SDS011;2273;48.464;11.926;2022-12-29T08:11:16;3.23;;;2.40;;
4521;SDS011;2273;48.464;11.926;2022-12-29T08:13:41;6.23;;;2.40;;
4521;SDS011;2273;48.464;11.926;2022-12-29T08:16:07;4.10;;;2.50;;
4521;SDS011;2273;48.464;11.926;2022-12-29T08:18:32;3.10;;;2.80;;
4521;SDS011;2273;48.464;11.926;2022-12-29T08:21:01;3.60;;;2.77;;
4521;SDS011;2273;48.464;11.926;2022-12-29T08:23:28;3.30;;;2.60;;
4521;SDS011;2273;48.464;11.926;2022-12-29T08:25:59;4.70;;;2.80;;
4521;SDS011;2273;48.464;11.926;2022-12-29T08:28:25;4.67;;;2.50;;
4521;SDS011;2273;48.464;11.926;2022-12-29T08:30:51;6.57;;;3.03;;
4521;SDS011;2273;48.464;11.926;2022-12-29T08:33:17;4.30;;;2.40;;
4521;SDS011;2273;48.464;11.926;2022-12-29T08:35:42;2.50;;;2.07;;
4521;SDS011;2273;48.464;11.926;2022-12-29T08:38:07;3.53;;;2.53;;
4521;SDS011;2273;48.464;11.926;2022-12-29T08:40:33;3.67;;;2.20;;
4521;SDS011;2273;48.464;11.926;2022-12-29T08:42:58;3.40;;;2.40;;
4521;SDS011;2273;48.464;11.926;2022-12-29T08:45:24;3.80;;;2.50;;
4521;SDS011;2273;48.464;11.926;2022-12-29T08:47:49;4.10;;;2.60;;
4521;SDS011;2273;48.464;11.926;2022-12-29T08:50:14;3.50;;;2.60;;
4521;SDS011;2273;48.464;11.926;2022-12-29T08:52:40;4.97;;;2.40;;
4521;SDS011;2273;48.464;11.926;2022-12-29T08:55:05;3.90;;;3.07;;
4521;SDS011;2273;48.464;11.926;2022-12-29T08:57:31;3.23;;;2.53;;
4521;SDS011;2273;48.464;11.926;2022-12-29T09:00:14;5.10;;;2.63;;
4521;SDS011;2273;48.464;11.926;2022-12-29T09:02:40;3.60;;;2.47;;
4521;SDS011;2273;48.464;11.926;2022-12-29T09:05:05;5.87;;;2.70;;
4521;SDS011;2273;48.464;11.926;2022-12-29T09:07:31;3.90;;;2.60;;
4521;SDS011;2273;48.464;11.926;2022-12-29T09:09:57;4.60;;;2.70;;
4521;SDS011;2273;48.464;11.926;2022-12-29T09:12:22;3.13;;;2.40;;
4521;SDS011;2273;48.464;11.926;2022-12-29T09:14:47;3.43;;;2.90;;
4521;SDS011;2273;48.464;11.926;2022-12-29T09:17:13;8.63;;;3.00;;
4521;SDS011;2273;48.464;11.926;2022-12-29T09:19:57;3.20;;;2.10;;
4521;SDS011;2273;48.464;11.926;2022-12-29T09:22:22;7.00;;;2.47;;
4521;SDS011;2273;48.464;11.926;2022-12-29T09:24:48;15.33;;;2.67;;
4521;SDS011;2273;48.464;11.926;2022-12-29T09:27:13;3.60;;;2.57;;
4521;SDS011;2273;48.464;11.926;2022-12-29T09:29:38;3.10;;;2.37;;
4521;SDS011;2273;48.464;11.926;2022-12-29T09:32:04;4.37;;;2.23;;
4521;SDS011;2273;48.464;11.926;2022-12-29T09:34:29;5.87;;;3.37;;
4521;SDS011;2273;48.464;11.926;2022-12-29T09:36:55;3.10;;;2.23;;
4521;SDS011;2273;48.464;11.926;2022-12-29T09:39:21;3.07;;;2.67;;
4521;SDS011;2273;48.464;11.926;2022-12-29T09:45:08;4.10;;;2.30;;
4521;SDS011;2273;48.464;11.926;2022-12-29T09:47:53;3.03;;;2.53;;
4521;SDS011;2273;48.464;11.926;2022-12-29T09:50:29;5.43;;;2.57;;
4521;SDS011;2273;48.464;11.926;2022-12-29T09:53:01;4.27;;;2.60;;
4521;SDS011;2273;48.464;11.926;2022-12-29T09:55:35;8.10;;;4.50;;
4521;SDS011;2273;48.464;11.926;2022-12-29T09:58:14;11.20;;;4.60;;
4521;SDS011;2273;48.464;11.926;2022-12-29T10:03:36;3.63;;;2.83;;
4521;SDS011;2273;48.464;11.926;2022-12-29T10:06:13;3.80;;;2.60;;
4521;SDS011;2273;48.464;11.926;2022-12-29T10:11:32;2.90;;;2.37;;
4521;SDS011;2273;48.464;11.926;2022-12-29T10:22:47;6.43;;;4.30;;
4521;SDS011;2273;48.464;11.926;2022-12-29T10:25:22;5.90;;;3.50;;
4521;SDS011;2273;48.464;11.926;2022-12-29T10:27:50;8.87;;;3.93;;
4521;SDS011;2273;48.464;11.926;2022-12-29T10:30:17;6.57;;;3.43;;
4521;SDS011;2273;48.464;11.926;2022-12-29T10:32:50;13.63;;;5.97;;
4521;SDS011;2273;48.464;11.926;2022-12-29T10:35:19;6.10;;;3.37;;
4521;SDS011;2273;48.464;11.926;2022-12-29T10:45:59;3.83;;;3.17;;
4521;SDS011;2273;48.464;11.926;2022-12-29T10:48:31;4.13;;;2.67;;
4521;SDS011;2273;48.464;11.926;2022-12-29T10:50:59;3.47;;;2.53;;
4521;SDS011;2273;48.464;11.926;2022-12-29T10:53:27;7.40;;;3.30;;
4521;SDS011;2273;48.464;11.926;2022-12-29T10:55:58;6.20;;;2.30;;
4521;SDS011;2273;48.464;11.926;2022-12-29T10:58:25;3.90;;;3.50;;
4521;SDS011;2273;48.464;11.926;2022-12-29T11:00:53;4.87;;;3.20;;
4521;SDS011;2273;48.464;11.926;2022-12-29T11:09:28;3.60;;;2.40;;
4521;SDS011;2273;48.464;11.926;2022-12-29T11:11:36;4.50;;;3.00;;
4521;SDS011;2273;48.464;11.926;2022-12-29T11:14:07;9.90;;;2.57;;
4521;SDS011;2273;48.464;11.926;2022-12-29T11:16:37;3.27;;;2.70;;
4521;SDS011;2273;48.464;11.926;2022-12-29T11:19:03;4.93;;;3.43;;
4521;SDS011;2273;48.464;11.926;2022-12-29T11:21:33;6.93;;;3.40;;
4521;SDS011;2273;48.464;11.926;2022-12-29T11:24:05;3.47;;;3.00;;
4521;SDS011;2273;48.464;11.926;2022-12-29T11:26:43;4.87;;;2.73;;
4521;SDS011;2273;48.464;11.926;2022-12-29T11:31:41;5.33;;;3.50;;
4521;SDS011;2273;48.464;11.926;2022-12-29T11:34:08;4.20;;;3.27;;
4521;SDS011;2273;48.464;11.926;2022-12-29T11:36:33;5.63;;;3.37;;
4521;SDS011;2273;48.464;11.926;2022-12-29T11:38:59;5.30;;;3.33;;
4521;SDS011;2273;48.464;11.926;2022-12-29T11:41:26;5.40;;;3.50;;
4521;SDS011;2273;48.464;11.926;2022-12-29T11:43:53;7.80;;;3.50;;
4521;SDS011;2273;48.464;11.926;2022-12-29T11:46:23;4.13;;;2.57;;
4521;SDS011;2273;48.464;11.926;2022-12-29T11:48:50;6.73;;;3.20;;
4521;SDS011;2273;48.464;11.926;2022-12-29T11:51:23;5.43;;;4.23;;
4521;SDS011;2273;48.464;11.926;2022-12-29T11:53:51;7.07;;;3.27;;
4521;SDS011;2273;48.464;11.926;2022-12-29T11:56:37;4.97;;;4.00;;
4521;SDS011;2273;48.464;11.926;2022-12-29T12:02:24;6.97;;;4.47;;
4521;SDS011;2273;48.464;11.926;2022-12-29T12:04:59;6.87;;;3.97;;
4521;SDS011;2273;48.464;11.926;2022-12-29T12:07:34;10.13;;;5.80;;
4521;SDS011;2273;48.464;11.926;2022-12-29T12:10:04;15.20;;;5.27;;
4521;SDS011;2273;48.464;11.926;2022-12-29T12:12:40;4.90;;;3.63;;
4521;SDS011;2273;48.464;11.926;2022-12-29T12:15:13;7.73;;;3.50;;
4521;SDS011;2273;48.464;11.926;2022-12-29T12:17:57;3.50;;;2.83;;
4521;SDS011;2273;48.464;11.926;2022-12-29T12:20:32;5.27;;;3.23;;
4521;SDS011;2273;48.464;11.926;2022-12-29T12:23:06;3.73;;;2.63;;
4521;SDS011;2273;48.464;11.926;2022-12-29T12:26:24;3.10;;;2.67;;
4521;SDS011;2273;48.464;11.926;2022-12-29T12:29:01;4.07;;;2.63;;
4521;SDS011;2273;48.464;11.926;2022-12-29T12:34:21;5.90;;;3.03;;
4521;SDS011;2273;48.464;11.926;2022-12-29T12:37:02;4.47;;;2.33;;
4521;SDS011;2273;48.464;11.926;2022-12-29T12:42:15;3.80;;;2.30;;
4521;SDS011;2273;48.464;11.926;2022-12-29T12:47:52;6.90;;;3.30;;
4521;SDS011;2273;48.464;11.926;2022-12-29T12:50:31;10.37;;;3.17;;
4521;SDS011;2273;48.464;11.926;2022-12-29T12:53:03;4.67;;;2.80;;
4521;SDS011;2273;48.464;11.926;2022-12-29T12:58:48;7.17;;;4.67;;
4521;SDS011;2273;48.464;11.926;2022-12-29T13:04:00;5.27;;;2.80;;
4521;SDS011;2273;48.464;11.926;2022-12-29T13:09:34;3.10;;;2.40;;
4521;SDS011;2273;48.464;11.926;2022-12-29T13:15:11;4.53;;;3.20;;
4521;SDS011;2273;48.464;11.926;2022-12-29T13:17:54;4.00;;;1.93;;
4521;SDS011;2273;48.464;11.926;2022-12-29T13:20:39;5.70;;;2.33;;
4521;SDS011;2273;48.464;11.926;2022-12-29T13:23:36;4.13;;;2.20;;
4521;SDS011;2273;48.464;11.926;2022-12-29T13:31:35;3.60;;;2.23;;
4521;SDS011;2273;48.464;11.926;2022-12-29T13:34:09;3.50;;;2.27;;
4521;SDS011;2273;48.464;11.926;2022-12-29T13:36:38;2.60;;;2.30;;
4521;SDS011;2273;48.464;11.926;2022-12-29T13:41:40;2.37;;;2.07;;
4521;SDS011;2273;48.464;11.926;2022-12-29T13:44:09;2.63;;;1.90;;
4521;SDS011;2273;48.464;11.926;2022-12-29T13:46:42;3.37;;;2.43;;
4521;SDS011;2273;48.464;11.926;2022-12-29T13:49:19;4.53;;;2.33;;
4521;SDS011;2273;48.464;11.926;2022-12-29T13:51:56;3.23;;;2.37;;
4521;SDS011;2273;48.464;11.926;2022-12-29T14:00:02;6.73;;;2.97;;
4521;SDS011;2273;48.464;11.926;2022-12-29T14:07:44;3.33;;;2.40;;
4521;SDS011;2273;48.464;11.926;2022-12-29T14:15:31;4.27;;;2.37;;
4521;SDS011;2273;48.464;11.926;2022-12-29T14:18:09;4.90;;;2.60;;
4521;SDS011;2273;48.464;11.926;2022-12-29T14:20:37;2.70;;;2.50;;
4521;SDS011;2273;48.464;11.926;2022-12-29T14:28:51;3.30;;;2.43;;
4521;SDS011;2273;48.464;11.926;2022-12-29T14:42:00;7.60;;;4.30;;
4521;SDS011;2273;48.464;11.926;2022-12-29T14:44:29;6.30;;;4.43;;
4521;SDS011;2273;48.464;11.926;2022-12-29T14:49:22;9.77;;;6.50;;
4521;SDS011;2273;48.464;11.926;2022-12-29T14:51:53;12.53;;;7.47;;
4521;SDS011;2273;48.464;11.926;2022-12-29T14:57:02;9.03;;;6.07;;
4521;SDS011;2273;48.464;11.926;2022-12-29T14:59:29;7.43;;;4.20;;
4521;SDS011;2273;48.464;11.926;2022-12-29T15:01:55;9.40;;;5.90;;
4521;SDS011;2273;48.464;11.926;2022-12-29T15:04:30;8.47;;;5.77;;
4521;SDS011;2273;48.464;11.926;2022-12-29T15:06:56;9.90;;;5.60;;
4521;SDS011;2273;48.464;11.926;2022-12-29T15:12:35;6.73;;;4.87;;
4521;SDS011;2273;48.464;11.926;2022-12-29T15:17:48;4.17;;;3.20;;
4521;SDS011;2273;48.464;11.926;2022-12-29T15:20:14;3.27;;;2.40;;
4521;SDS011;2273;48.464;11.926;2022-12-29T15:22:47;5.97;;;2.60;;
4521;SDS011;2273;48.464;11.926;2022-12-29T15:25:17;3.17;;;2.80;;
4521;SDS011;2273;48.464;11.926;2022-12-29T15:27:47;3.13;;;2.73;;
4521;SDS011;2273;48.464;11.926;2022-12-29T15:30:17;4.23;;;2.70;;
4521;SDS011;2273;48.464;11.926;2022-12-29T15:32:43;9.33;;;2.37;;
4521;SDS011;2273;48.464;11.926;2022-12-29T15:35:24;4.83;;;2.60;;
4521;SDS011;2273;48.464;11.926;2022-12-29T15:37:52;5.13;;;2.50;;
4521;SDS011;2273;48.464;11.926;2022-12-29T15:40:26;2.67;;;2.20;;
4521;SDS011;2273;48.464;11.926;2022-12-29T15:45:40;3.97;;;2.70;;
4521;SDS011;2273;48.464;11.926;2022-12-29T15:48:07;4.87;;;2.30;;
4521;SDS011;2273;48.464;11.926;2022-12-29T15:50:39;4.70;;;3.00;;
4521;SDS011;2273;48.464;11.926;2022-12-29T15:53:09;4.23;;;2.60;;
4521;SDS011;2273;48.464;11.926;2022-12-29T15:55:37;6.07;;;3.93;;
4521;SDS011;2273;48.464;11.926;2022-12-29T15:58:04;7.83;;;3.33;;
4521;SDS011;2273;48.464;11.926;2022-12-29T16:00:40;5.23;;;3.90;;
4521;SDS011;2273;48.464;11.926;2022-12-29T16:03:12;10.10;;;5.87;;
4521;SDS011;2273;48.464;11.926;2022-12-29T16:05:39;19.37;;;9.97;;
4521;SDS011;2273;48.464;11.926;2022-12-29T16:11:03;12.90;;;6.70;;
4521;SDS011;2273;48.464;11.926;2022-12-29T16:13:41;9.70;;;6.30;;
4521;SDS011;2273;48.464;11.926;2022-12-29T16:16:07;12.63;;;6.57;;
4521;SDS011;2273;48.464;11.926;2022-12-29T16:18:35;13.30;;;6.70;;
4521;SDS011;2273;48.464;11.926;2022-12-29T16:21:05;10.20;;;6.00;;
4521;SDS011;2273;48.464;11.926;2022-12-29T16:23:31;5.63;;;3.90;;
4521;SDS011;2273;48.464;11.926;2022-12-29T16:25:57;6.07;;;3.43;;
4521;SDS011;2273;48.464;11.926;2022-12-29T16:28:24;6.43;;;3.77;;
4521;SDS011;2273;48.464;11.926;2022-12-29T16:31:02;11.63;;;7.23;;
4521;SDS011;2273;48.464;11.926;2022-12-29T16:33:35;16.73;;;8.37;;
4521;SDS011;2273;48.464;11.926;2022-12-29T16:36:51;12.13;;;6.70;;
4521;SDS011;2273;48.464;11.926;2022-12-29T16:39:27;8.33;;;5.70;;
4521;SDS011;2273;48.464;11.926;2022-12-29T16:41:55;9.83;;;6.00;;
4521;SDS011;2273;48.464;11.926;2022-12-29T16:44:25;11.30;;;7.20;;
4521;SDS011;2273;48.464;11.926;2022-12-29T16:49:23;7.77;;;5.57;;
4521;SDS011;2273;48.464;11.926;2022-12-29T16:51:48;7.10;;;5.40;;
4521;SDS011;2273;48.464;11.926;2022-12-29T16:54:19;7.63;;;5.60;;
4521;SDS011;2273;48.464;11.926;2022-12-29T16:56:47;9.13;;;6.17;;
4521;SDS011;2273;48.464;11.926;2022-12-29T17:01:58;9.20;;;5.70;;
4521;SDS011;2273;48.464;11.926;2022-12-29T17:04:24;8.33;;;5.90;;
4521;SDS011;2273;48.464;11.926;2022-12-29T17:06:50;9.53;;;5.00;;
4521;SDS011;2273;48.464;11.926;2022-12-29T17:09:16;9.67;;;4.57;;
4521;SDS011;2273;48.464;11.926;2022-12-29T17:12:00;5.40;;;3.63;;
4521;SDS011;2273;48.464;11.926;2022-12-29T17:17:04;6.80;;;4.70;;
4521;SDS011;2273;48.464;11.926;2022-12-29T17:19:35;5.70;;;4.50;;
4521;SDS011;2273;48.464;11.926;2022-12-29T17:22:02;5.40;;;3.70;;
4521;SDS011;2273;48.464;11.926;2022-12-29T17:24:28;11.90;;;4.10;;
4521;SDS011;2273;48.464;11.926;2022-12-29T17:26:55;6.60;;;3.37;;
4521;SDS011;2273;48.464;11.926;2022-12-29T17:29:29;3.80;;;3.23;;
4521;SDS011;2273;48.464;11.926;2022-12-29T17:31:56;7.53;;;3.53;;
4521;SDS011;2273;48.464;11.926;2022-12-29T17:34:22;4.20;;;3.40;;
4521;SDS011;2273;48.464;11.926;2022-12-29T17:36:48;4.40;;;3.00;;
4521;SDS011;2273;48.464;11.926;2022-12-29T17:39:14;4.20;;;2.63;;
4521;SDS011;2273;48.464;11.926;2022-12-29T17:41:39;6.33;;;3.13;;
4521;SDS011;2273;48.464;11.926;2022-12-29T17:44:05;4.53;;;3.40;;
4521;SDS011;2273;48.464;11.926;2022-12-29T17:46:31;4.67;;;2.77;;
4521;SDS011;2273;48.464;11.926;2022-12-29T17:48:57;4.77;;;3.03;;
4521;SDS011;2273;48.464;11.926;2022-12-29T17:51:23;3.60;;;2.57;;
4521;SDS011;2273;48.464;11.926;2022-12-29T17:53:48;6.00;;;3.07;;
4521;SDS011;2273;48.464;11.926;2022-12-29T17:56:16;3.53;;;2.77;;
4521;SDS011;2273;48.464;11.926;2022-12-29T17:58:42;5.40;;;3.13;;
4521;SDS011;2273;48.464;11.926;2022-12-29T18:01:08;6.90;;;3.50;;
4521;SDS011;2273;48.464;11.926;2022-12-29T18:03:35;6.67;;;3.43;;